Terminal Aerodrome Forecast
Issued by NWS Jackson, KY

Home | Current Version | Previous Version | Text Only | Print | Product List | Glossary On
Versions: 1 2 3 4 5 6 7 8 9 10 11 12 13 14 15 16 17 18 19 20 21
000
FTUS43 KJKL 251700
TAFJKL
TAF
KJKL 251740Z 2518/2618 26006KT P6SM SKC
     FM260400 VRB03KT P6SM VCSH OVC060
     FM260800 VRB03KT 3SM -RASN BR OVC025
     FM261000 VRB03KT 2SM -SN BR OVC018
     FM261300 VRB04KT P6SM SCT020 BKN035=

USA.gov is the U.S. government's official web portal to all federal, state and local government web resources and services.